Time;durP1;ratioP1;P1;durP2;ratioP2;P2;SDS_P1;SDS_P2;PMS_P1;PMS_P2;Temp;Humidity;BMP_temperature;BMP_pressure;BME280_temperature;BME280_humidity;BME280_pressure;Samples;Min_cycle;Max_cycle;Signal;HPM_P1;HPM_P2
2020/12/19 00:00:01;;;;;;;60.45;9.15;;;;;;;1.20;82.06;96956.00;5051568;28;20122;-67
2020/12/19 00:02:27;;;;;;;59.90;8.77;;;;;;;1.23;82.05;96955.50;5052154;28;20484;-66
2020/12/19 00:04:53;;;;;;;49.15;8.45;;;;;;;1.26;81.98;96949.66;5052104;28;20049;-66
2020/12/19 00:07:19;;;;;;;70.68;9.88;;;;;;;1.26;82.17;96957.69;5051242;28;20511;-66
2020/12/19 00:09:45;;;;;;;50.53;8.45;;;;;;;1.23;82.14;96950.13;5052107;28;20120;-66
2020/12/19 00:12:12;;;;;;;52.00;8.57;;;;;;;1.18;81.84;96957.28;5051384;28;20072;-66
2020/12/19 00:14:38;;;;;;;53.92;9.55;;;;;;;1.22;81.99;96948.50;5051913;28;20102;-66
2020/12/19 00:17:04;;;;;;;47.38;8.82;;;;;;;1.24;82.01;96949.06;5051420;28;20064;-66
2020/12/19 00:19:30;;;;;;;44.78;8.60;;;;;;;1.25;82.28;96941.81;5052869;28;20048;-66
2020/12/19 00:21:56;;;;;;;58.50;9.15;;;;;;;1.22;82.25;96937.78;5051742;28;20053;-66
2020/12/19 00:24:22;;;;;;;50.35;8.77;;;;;;;1.22;82.30;96929.72;5051008;28;20048;-66
2020/12/19 00:26:48;;;;;;;54.88;8.07;;;;;;;1.19;82.27;96934.75;5050385;28;20044;-66
2020/12/19 00:29:15;;;;;;;48.83;8.95;;;;;;;1.20;82.39;96926.50;5050970;28;20052;-66
2020/12/19 00:31:41;;;;;;;71.45;9.63;;;;;;;1.22;82.57;96918.19;5051660;28;20049;-66
2020/12/19 00:34:08;;;;;;;54.35;9.07;;;;;;;1.18;82.31;96928.59;5051074;28;20045;-67
2020/12/19 00:36:34;;;;;;;104.70;9.82;;;;;;;1.19;82.68;96911.44;5052399;28;20118;-66
2020/12/19 00:39:00;;;;;;;49.80;9.02;;;;;;;1.24;82.53;96916.06;5071186;28;20652;-66
2020/12/19 00:41:27;;;;;;;65.53;9.65;;;;;;;1.27;82.49;96904.84;5070233;28;20081;-66
2020/12/19 00:43:53;;;;;;;50.08;8.73;;;;;;;1.24;82.65;96911.50;5069644;28;20519;-66
2020/12/19 00:46:21;;;;;;;72.80;10.05;;;;;;;1.22;82.57;96900.22;5070626;28;20553;-66
2020/12/19 00:48:48;;;;;;;55.97;9.93;;;;;;;1.27;82.78;96902.97;5071325;28;20061;-66
2020/12/19 00:51:15;;;;;;;58.97;9.98;;;;;;;1.29;82.59;96895.50;5070317;28;20040;-66
2020/12/19 00:53:42;;;;;;;55.88;9.85;;;;;;;1.34;82.57;96904.69;5070898;28;20048;-66
2020/12/19 00:56:16;;;;;;;51.22;9.52;;;;;;;1.38;82.61;96897.78;5070390;28;20626;-67
2020/12/19 00:58:42;;;;;;;49.70;9.82;;;;;;;1.42;82.59;96898.91;5071106;28;20064;-66
2020/12/19 01:01:08;;;;;;;62.65;10.52;;;;;;;1.41;82.55;96892.72;5070498;28;20059;-67
2020/12/19 01:03:35;;;;;;;48.00;9.52;;;;;;;1.40;82.61;96903.69;5071099;28;20492;-66
2020/12/19 01:06:01;;;;;;;57.15;9.68;;;;;;;1.41;82.60;96902.63;5070526;28;20048;-71
2020/12/19 01:08:27;;;;;;;62.75;10.15;;;;;;;1.44;82.72;96902.16;5070540;28;20433;-66
2020/12/19 01:10:53;;;;;;;53.22;9.10;;;;;;;1.48;82.71;96903.28;5070591;28;20163;-66
2020/12/19 01:13:19;;;;;;;60.28;9.02;;;;;;;1.45;82.48;96903.78;5070261;28;20043;-66
2020/12/19 01:15:44;;;;;;;68.57;9.60;;;;;;;1.41;82.34;96906.16;5070769;28;20056;-66
2020/12/19 01:18:10;;;;;;;48.53;8.15;;;;;;;1.32;82.25;96915.66;5070204;28;20136;-66
2020/12/19 01:20:37;;;;;;;59.05;9.25;;;;;;;1.27;82.36;96907.53;5056987;28;20048;-66
2020/12/19 01:23:03;;;;;;;54.40;8.95;;;;;;;1.27;82.37;96908.34;5050039;28;20044;-66
2020/12/19 01:25:29;;;;;;;79.70;9.15;;;;;;;1.32;82.43;96901.44;5050392;28;20041;-66
2020/12/19 01:27:55;;;;;;;70.53;10.23;;;;;;;1.32;82.37;96904.13;5050375;28;20052;-66
2020/12/19 01:30:21;;;;;;;57.85;9.00;;;;;;;1.32;82.20;96901.44;5049917;28;20276;-66
2020/12/19 01:32:49;;;;;;;57.83;9.10;;;;;;;1.33;82.11;96901.19;5050439;28;20049;-66
2020/12/19 01:35:16;;;;;;;56.00;10.80;;;;;;;1.35;82.26;96892.88;5049957;28;20135;-66
2020/12/19 01:37:43;;;;;;;61.65;8.93;;;;;;;1.37;82.32;96885.41;5049699;28;20099;-66
2020/12/19 01:40:09;;;;;;;72.22;9.98;;;;;;;1.38;82.27;96882.47;5049765;28;20103;-66
2020/12/19 01:42:36;;;;;;;50.92;8.93;;;;;;;1.36;82.52;96883.78;5050247;28;20048;-66
2020/12/19 01:45:02;;;;;;;62.83;8.88;;;;;;;1.39;82.45;96891.34;5049617;28;20052;-67
2020/12/19 01:47:28;;;;;;;48.00;8.43;;;;;;;1.42;82.53;96888.97;5050033;28;20041;-66
2020/12/19 01:49:54;;;;;;;52.95;9.80;;;;;;;1.44;82.24;96886.03;5051212;28;20518;-66
2020/12/19 01:52:23;;;;;;;58.50;9.45;;;;;;;1.44;82.31;96886.03;5049589;28;20045;-66
2020/12/19 01:54:50;;;;;;;74.15;10.18;;;;;;;1.43;82.31;96881.75;5049966;28;20104;-66
2020/12/19 01:57:18;;;;;;;60.72;10.18;;;;;;;1.39;82.15;96877.91;5049583;28;20049;-66
2020/12/19 01:59:44;;;;;;;62.63;9.32;;;;;;;1.38;82.17;96876.31;5049784;28;20505;-66
2020/12/19 02:02:11;;;;;;;59.42;8.82;;;;;;;1.35;82.33;96882.16;5049434;28;20119;-66
2020/12/19 02:04:38;;;;;;;57.55;8.55;;;;;;;1.36;82.19;96873.03;5050077;28;20045;-66
2020/12/19 02:07:05;;;;;;;58.90;9.15;;;;;;;1.36;82.13;96873.03;5049218;28;20056;-66
2020/12/19 02:09:36;;;;;;;52.40;9.18;;;;;;;1.33;82.23;96868.19;5049791;28;20503;-66
2020/12/19 02:12:04;;;;;;;49.95;8.98;;;;;;;1.33;82.33;96868.19;5049329;28;20048;-66
2020/12/19 02:14:30;;;;;;;81.65;9.27;;;;;;;1.30;82.35;96864.94;5049824;28;20068;-66
2020/12/19 02:16:57;;;;;;;44.13;9.23;;;;;;;1.29;82.19;96863.28;5049758;28;20083;-66
2020/12/19 02:19:24;;;;;;;53.95;9.23;;;;;;;1.24;82.10;96862.41;5050200;28;20091;-66
2020/12/19 02:21:51;;;;;;;58.65;9.65;;;;;;;1.18;82.44;96863.41;5049617;28;20044;-66
2020/12/19 02:24:18;;;;;;;56.22;8.82;;;;;;;1.17;82.65;96859.91;5049067;28;20047;-66
2020/12/19 02:26:47;;;;;;;69.30;10.07;;;;;;;1.18;82.70;96856.16;5049337;28;20424;-66
2020/12/19 02:29:13;;;;;;;52.45;8.65;;;;;;;1.18;82.68;96858.84;5048973;28;20152;-66
2020/12/19 02:31:39;;;;;;;52.20;8.70;;;;;;;1.17;82.60;96865.28;5049541;28;20405;-66
2020/12/19 02:34:05;;;;;;;81.63;9.85;;;;;;;1.16;82.53;96855.59;5049086;28;20488;-66
2020/12/19 02:36:31;;;;;;;54.53;8.88;;;;;;;1.18;82.54;96855.34;5049570;28;20044;-66
2020/12/19 02:38:57;;;;;;;69.70;9.10;;;;;;;1.17;82.56;96865.28;5049507;28;20052;-66
2020/12/19 02:41:24;;;;;;;46.97;8.35;;;;;;;1.15;82.44;96853.16;5049048;28;20465;-66
2020/12/19 02:43:54;;;;;;;49.00;9.15;;;;;;;1.15;82.65;96855.81;5055844;28;20049;-66
2020/12/19 02:46:20;;;;;;;51.83;9.02;;;;;;;1.17;82.47;96849.19;5068649;28;20044;-66
2020/12/19 02:48:47;;;;;;;78.40;9.27;;;;;;;1.19;82.42;96848.91;5070654;28;20412;-66
2020/12/19 02:51:13;;;;;;;94.57;10.40;;;;;;;1.13;82.35;96848.03;5073042;28;20048;-66
2020/12/19 02:53:39;;;;;;;54.85;8.85;;;;;;;1.11;82.45;96852.84;5073581;28;20131;-66
2020/12/19 02:56:05;;;;;;;71.55;9.05;;;;;;;1.12;82.23;96851.78;5072728;28;20056;-66
2020/12/19 02:58:32;;;;;;;61.28;8.60;;;;;;;1.12;82.43;96846.41;5073428;28;20123;-66
2020/12/19 03:00:58;;;;;;;54.80;8.98;;;;;;;1.16;82.30;96852.91;5073007;28;20500;-66
2020/12/19 03:03:24;;;;;;;67.00;8.95;;;;;;;1.17;82.36;96841.13;5072869;28;20052;-66
2020/12/19 03:05:50;;;;;;;59.10;8.75;;;;;;;1.13;82.35;96841.88;5073171;28;20047;-66
2020/12/19 03:08:16;;;;;;;62.60;8.98;;;;;;;1.09;82.22;96836.16;5072418;28;20045;-66
2020/12/19 03:10:42;;;;;;;61.65;8.80;;;;;;;1.07;82.05;96843.66;5073098;28;20048;-66
2020/12/19 03:13:08;;;;;;;63.65;8.57;;;;;;;1.06;82.04;96834.00;5072487;28;20049;-66
2020/12/19 03:15:35;;;;;;;48.50;8.45;;;;;;;1.03;82.19;96834.47;5072782;28;20052;-66
2020/12/19 03:18:01;;;;;;;52.72;8.60;;;;;;;0.99;82.20;96836.00;5072386;28;20508;-67
2020/12/19 03:20:27;;;;;;;42.13;8.57;;;;;;;0.99;82.26;96839.53;5072690;28;20453;-66
2020/12/19 03:22:53;;;;;;;40.67;8.32;;;;;;;1.00;82.58;96837.66;5072743;28;20139;-66
2020/12/19 03:25:19;;;;;;;53.90;9.02;;;;;;;1.05;82.52;96843.09;5072183;28;20049;-66
2020/12/19 03:27:45;;;;;;;43.90;8.05;;;;;;;1.07;82.21;96843.66;5072594;28;20637;-66
2020/12/19 03:30:11;;;;;;;48.10;8.77;;;;;;;1.07;82.23;96832.94;5072038;28;20045;-66
2020/12/19 03:32:38;;;;;;;57.90;9.23;;;;;;;1.09;82.28;96835.34;5072537;28;20491;-66
2020/12/19 03:35:05;;;;;;;42.80;9.40;;;;;;;1.10;82.20;96843.19;5072281;28;20055;-66
2020/12/19 03:37:33;;;;;;;45.33;8.48;;;;;;;1.10;82.16;96837.81;5072566;28;20055;-66
2020/12/19 03:39:59;;;;;;;59.22;8.85;;;;;;;1.11;82.18;96838.63;5072551;28;20043;-66
2020/12/19 03:42:25;;;;;;;62.20;10.73;;;;;;;1.09;82.12;96836.16;5071907;28;20048;-66
2020/12/19 03:44:51;;;;;;;57.70;8.50;;;;;;;1.08;81.95;96837.22;5072469;28;20080;-66
2020/12/19 03:47:17;;;;;;;58.25;8.77;;;;;;;1.01;81.65;96839.28;5071673;28;20166;-66
2020/12/19 03:49:44;;;;;;;56.80;8.48;;;;;;;0.99;81.85;96842.22;5072631;28;20044;-66
2020/12/19 03:52:10;;;;;;;60.92;9.30;;;;;;;0.98;81.89;96831.72;5071708;28;20068;-66
2020/12/19 03:54:36;;;;;;;49.90;9.18;;;;;;;1.03;81.89;96831.78;5072166;28;20510;-66
2020/12/19 03:57:02;;;;;;;49.85;8.80;;;;;;;1.08;81.93;96834.56;5071660;28;20492;-67
2020/12/19 03:59:28;;;;;;;66.15;9.55;;;;;;;1.11;81.82;96823.34;5071882;28;20045;-66
2020/12/19 04:01:54;;;;;;;52.72;9.57;;;;;;;1.12;81.91;96830.31;5072134;28;20060;-66
2020/12/19 04:04:20;;;;;;;49.95;9.60;;;;;;;1.15;81.61;96835.22;5071856;28;20170;-66
2020/12/19 04:06:47;;;;;;;57.42;10.25;;;;;;;1.18;81.65;96826.66;5071923;28;20040;-66
2020/12/19 04:09:13;;;;;;;62.25;10.80;;;;;;;1.19;81.58;96828.28;5071220;28;20045;-66
2020/12/19 04:11:39;;;;;;;51.75;10.00;;;;;;;1.19;81.89;96824.78;5072294;28;20040;-66
2020/12/19 04:14:05;;;;;;;52.78;9.80;;;;;;;1.15;82.02;96819.13;5071532;28;20048;-66
2020/12/19 04:16:31;;;;;;;62.05;9.85;;;;;;;1.19;81.89;96819.41;5071750;28;20445;-66
2020/12/19 04:18:56;;;;;;;62.28;10.40;;;;;;;1.13;81.83;96829.25;5071825;28;20115;-66
2020/12/19 04:21:22;;;;;;;50.33;9.07;;;;;;;1.16;82.01;96831.47;5071294;28;20079;-66
2020/12/19 04:23:49;;;;;;;52.55;9.52;;;;;;;1.18;81.84;96829.34;5071790;28;20046;-66
2020/12/19 04:26:15;;;;;;;53.75;9.43;;;;;;;1.19;81.77;96827.47;5071239;28;20040;-66
2020/12/19 04:28:41;;;;;;;54.63;9.65;;;;;;;1.20;81.82;96826.41;5071799;28;20106;-66
2020/12/19 04:31:07;;;;;;;51.05;9.32;;;;;;;1.19;81.76;96825.59;5071181;28;20075;-67
2020/12/19 04:33:33;;;;;;;30.67;8.30;;;;;;;1.21;81.63;96812.75;5071490;28;20707;-66
2020/12/19 04:35:59;;;;;;;36.30;8.32;;;;;;;1.23;81.79;96816.00;5071468;28;20044;-66
2020/12/19 04:38:25;;;;;;;34.40;8.77;;;;;;;1.25;81.71;96813.91;5071167;28;20071;-66
2020/12/19 04:40:52;;;;;;;48.50;8.93;;;;;;;1.25;81.64;96813.91;5071386;28;20056;-66
2020/12/19 04:43:19;;;;;;;72.47;10.43;;;;;;;1.19;81.54;96814.84;5070921;28;20036;-66
2020/12/19 04:45:48;;;;;;;46.25;9.82;;;;;;;1.16;81.70;96819.91;5071198;28;20110;-66
2020/12/19 04:48:17;;;;;;;59.40;9.75;;;;;;;1.18;81.71;96807.88;5070812;28;20132;-66
2020/12/19 04:50:45;;;;;;;45.00;8.40;;;;;;;1.20;81.55;96816.50;5071318;28;20557;-64
2020/12/19 04:53:13;;;;;;;62.42;10.02;;;;;;;1.18;81.49;96813.25;5070700;28;20040;-66
2020/12/19 04:55:40;;;;;;;51.88;9.13;;;;;;;1.18;81.31;96818.59;5071496;28;20040;-66
2020/12/19 04:58:08;;;;;;;50.83;9.70;;;;;;;1.10;81.24;96820.88;5070781;28;20044;-68
2020/12/19 05:00:34;;;;;;;51.58;8.75;;;;;;;1.11;81.37;96827.91;5070948;28;20504;-66
2020/12/19 05:03:00;;;;;;;50.60;9.30;;;;;;;1.05;81.33;96824.31;5071037;28;20049;-66
2020/12/19 05:05:26;;;;;;;45.88;8.60;;;;;;;0.99;81.39;96825.28;5070714;28;20044;-66
2020/12/19 05:07:52;;;;;;;49.10;8.30;;;;;;;0.94;81.27;96834.09;5070799;28;20073;-66
2020/12/19 05:10:18;;;;;;;54.90;9.52;;;;;;;0.95;81.18;96829.53;5070363;28;20052;-66
2020/12/19 05:12:51;;;;;;;35.13;8.38;;;;;;;0.96;81.39;96826.59;5070291;28;20045;-66
2020/12/19 05:15:18;;;;;;;54.22;8.40;;;;;;;0.96;81.17;96828.47;5070459;28;20079;-66
2020/12/19 05:17:50;;;;;;;25.25;8.10;;;;;;;0.96;81.36;96831.16;5070984;28;20090;-66
2020/12/19 05:20:17;;;;;;;51.80;8.30;;;;;;;1.01;81.35;96831.22;5070204;28;20105;-66
2020/12/19 05:22:46;;;;;;;54.35;8.95;;;;;;;0.98;81.34;96834.38;5070603;28;20051;-66
2020/12/19 05:25:15;;;;;;;48.63;8.32;;;;;;;0.99;81.36;96830.66;5070109;28;20048;-66
2020/12/19 05:27:42;;;;;;;49.83;8.80;;;;;;;0.99;81.04;96828.81;5070736;28;20048;-65
2020/12/19 05:30:08;;;;;;;54.00;9.15;;;;;;;1.00;81.10;96832.28;5070090;28;20040;-66
2020/12/19 05:32:36;;;;;;;39.38;8.57;;;;;;;0.95;80.80;96829.53;5070650;28;20055;-66
2020/12/19 05:35:06;;;;;;;56.25;9.40;;;;;;;0.88;80.83;96828.88;5069903;28;20052;-67
2020/12/19 05:37:32;;;;;;;50.78;8.88;;;;;;;0.85;81.04;96834.75;5070449;28;20040;-64
2020/12/19 05:39:58;;;;;;;52.97;9.05;;;;;;;0.87;80.99;96837.97;5070455;28;20388;-67
2020/12/19 05:42:24;;;;;;;51.90;9.30;;;;;;;0.87;80.96;96838.78;5069463;28;20074;-64
2020/12/19 05:44:50;;;;;;;40.60;9.23;;;;;;;0.86;81.15;96842.53;5070308;28;20702;-64
2020/12/19 05:47:17;;;;;;;45.45;8.55;;;;;;;0.87;81.15;96848.69;5069266;28;20052;-67
2020/12/19 05:49:44;;;;;;;47.17;9.48;;;;;;;0.89;81.08;96841.22;5070016;28;20064;-67
2020/12/19 05:52:10;;;;;;;55.13;9.55;;;;;;;0.89;81.11;96841.22;5069540;28;20474;-66
2020/12/19 05:54:41;;;;;;;46.38;9.98;;;;;;;0.91;81.21;96844.47;5070288;28;20048;-64
2020/12/19 05:57:08;;;;;;;56.08;10.10;;;;;;;0.95;81.27;96842.94;5069373;28;20090;-65
2020/12/19 05:59:35;;;;;;;46.97;9.68;;;;;;;0.94;81.44;96838.63;5070138;28;20519;-64
2020/12/19 06:02:02;;;;;;;45.28;8.93;;;;;;;0.87;81.07;96841.47;5069592;28;20045;-65
2020/12/19 06:04:29;;;;;;;46.40;9.23;;;;;;;0.93;81.20;96847.72;5069905;28;20501;-64
2020/12/19 06:06:56;;;;;;;59.10;9.65;;;;;;;0.96;81.27;96841.88;5069708;28;20048;-65
2020/12/19 06:09:22;;;;;;;61.50;11.10;;;;;;;1.01;81.29;96844.66;5069382;28;20048;-64
2020/12/19 06:11:53;;;;;;;60.42;9.70;;;;;;;1.03;81.41;96839.84;5069802;28;20049;-65
2020/12/19 06:14:21;;;;;;;67.03;10.32;;;;;;;1.06;81.44;96852.78;5069472;28;20045;-65
2020/12/19 06:16:50;;;;;;;43.28;9.88;;;;;;;1.08;81.28;96847.16;5069834;28;20453;-65
2020/12/19 06:19:20;;;;;;;65.50;10.30;;;;;;;1.05;81.27;96856.50;5069038;28;20508;-65
2020/12/19 06:21:56;;;;;;;55.55;10.13;;;;;;;1.04;81.33;96854.84;5069500;28;20048;-65
2020/12/19 06:24:39;;;;;;;47.63;10.07;;;;;;;1.07;81.20;96853.56;5069207;28;20048;-64
2020/12/19 06:27:09;;;;;;;69.43;11.33;;;;;;;1.08;81.31;96852.50;5069027;28;20048;-65
2020/12/19 06:29:36;;;;;;;56.25;10.63;;;;;;;1.06;81.18;96858.13;5069586;28;20102;-64
2020/12/19 06:32:02;;;;;;;79.38;11.88;;;;;;;1.05;81.27;96856.50;5069046;28;20044;-65
2020/12/19 06:34:28;;;;;;;52.05;11.55;;;;;;;1.05;81.25;96851.16;5069494;28;20102;-64
2020/12/19 06:36:56;;;;;;;51.75;11.05;;;;;;;1.06;81.08;96854.63;5069255;28;20419;-64
2020/12/19 06:39:23;;;;;;;60.40;11.35;;;;;;;1.09;81.18;96856.81;5068941;28;20052;-65
2020/12/19 06:41:49;;;;;;;62.83;12.02;;;;;;;1.07;80.79;96854.38;5069546;28;20052;-65
2020/12/19 06:44:23;;;;;;;43.00;11.38;;;;;;;1.06;80.90;96858.13;5069080;28;20511;-64
2020/12/19 06:46:49;;;;;;;62.67;11.90;;;;;;;1.08;80.99;96852.50;5069130;28;20094;-65
2020/12/19 06:49:30;;;;;;;42.97;10.18;;;;;;;1.06;81.00;96851.97;5068880;28;20451;-65
2020/12/19 06:52:01;;;;;;;70.25;12.68;;;;;;;1.03;81.10;96853.25;5069343;28;20076;-64
2020/12/19 06:54:29;;;;;;;57.22;10.93;;;;;;;1.03;81.14;96853.25;5068974;28;20036;-64
2020/12/19 06:56:55;;;;;;;60.08;11.93;;;;;;;1.01;81.03;96860.72;5069253;28;20040;-64
2020/12/19 06:59:23;;;;;;;65.43;12.25;;;;;;;1.02;81.10;96863.16;5068935;28;20131;-65
2020/12/19 07:01:49;;;;;;;62.13;12.77;;;;;;;1.05;81.05;96869.91;5069303;28;20087;-64
2020/12/19 07:04:33;;;;;;;56.35;10.93;;;;;;;1.03;80.92;96869.34;5068782;28;20052;-65
2020/12/19 07:07:05;;;;;;;61.95;10.82;;;;;;;0.99;80.78;96873.56;5069165;28;20060;-64
2020/12/19 07:09:31;;;;;;;57.25;11.60;;;;;;;0.99;80.85;96874.41;5069167;28;20032;-64
2020/12/19 07:11:58;;;;;;;57.45;11.73;;;;;;;0.92;80.59;96870.22;5068876;28;20048;-64
2020/12/19 07:14:24;;;;;;;52.28;10.40;;;;;;;0.87;80.62;96864.78;5068833;28;20044;-64
2020/12/19 07:16:52;;;;;;;54.33;10.70;;;;;;;0.86;80.79;96872.03;5069137;28;20515;-65
2020/12/19 07:19:21;;;;;;;66.60;11.65;;;;;;;0.83;80.60;96867.13;5068568;28;20049;-65
2020/12/19 07:21:48;;;;;;;53.75;11.15;;;;;;;0.83;80.73;96871.69;5069119;28;20052;-65
2020/12/19 07:24:15;;;;;;;55.08;11.32;;;;;;;0.84;80.98;96865.28;5068464;28;20110;-65
2020/12/19 07:26:41;;;;;;;132.82;14.10;;;;;;;0.88;81.03;96866.41;5067685;28;20052;-65
2020/12/19 07:29:18;;;;;;;82.47;11.52;;;;;;;0.91;80.80;96857.88;5084237;28;20052;-66
2020/12/19 07:31:46;;;;;;;65.55;10.77;;;;;;;0.91;80.80;96869.44;5085440;28;20080;-66
2020/12/19 07:34:12;;;;;;;72.43;11.13;;;;;;;0.90;80.74;96870.50;5085887;28;20071;-66
2020/12/19 07:36:40;;;;;;;80.50;10.80;;;;;;;0.89;80.63;96868.88;5089730;28;20044;-66
2020/12/19 07:39:06;;;;;;;82.10;12.05;;;;;;;0.82;80.06;96875.44;5088776;28;20054;-66
2020/12/19 07:41:34;;;;;;;70.68;9.65;;;;;;;0.80;80.21;96874.88;5089578;28;20525;-66
2020/12/19 07:44:17;;;;;;;59.53;10.18;;;;;;;0.83;80.65;96874.38;5079984;28;20844;-66
2020/12/19 07:46:50;;;;;;;;;;;;;;;0.85;80.65;96877.63;5069091;28;20523;-68
2020/12/19 07:49:45;;;;;;;83.90;11.48;;;;;;;0.75;80.78;96876.41;5068544;28;19946;-65
2020/12/19 07:52:13;;;;;;;45.97;8.88;;;;;;;0.75;80.75;96879.09;5046979;28;20828;-66
2020/12/19 07:54:40;;;;;;;72.53;11.30;;;;;;;0.76;80.82;96879.91;5069417;28;20059;-67
2020/12/19 07:57:07;;;;;;;88.63;11.95;;;;;;;0.81;80.61;96892.56;5067924;28;20052;-69
2020/12/19 07:59:34;;;;;;;53.42;10.00;;;;;;;0.86;80.66;96895.34;5069074;28;20786;-65
2020/12/19 08:02:03;;;;;;;90.50;10.57;;;;;;;0.88;80.76;96895.91;5068801;28;20056;-65
2020/12/19 08:04:30;;;;;;;70.03;9.90;;;;;;;0.85;80.44;96899.09;5068780;28;20049;-66
2020/12/19 08:06:57;;;;;;;84.57;10.43;;;;;;;0.80;80.44;96897.13;5068471;28;20639;-66
2020/12/19 08:09:24;;;;;;;91.70;11.65;;;;;;;0.77;80.51;96900.28;5068469;28;20062;-66
2020/12/19 08:11:51;;;;;;;92.18;11.05;;;;;;;0.75;80.59;96897.84;5068645;28;20055;-66
2020/12/19 08:14:20;;;;;;;52.40;9.23;;;;;;;0.74;80.45;96892.75;5068405;28;20098;-67
2020/12/19 08:16:47;;;;;;;92.38;11.13;;;;;;;0.74;80.71;96890.88;5068465;28;20063;-69
2020/12/19 08:19:20;;;;;;;79.30;10.55;;;;;;;0.74;80.63;96892.75;5067922;28;20617;-69
2020/12/19 08:21:48;;;;;;;96.20;13.93;;;;;;;0.75;80.62;96889.81;5068534;28;20053;-66
2020/12/19 08:24:15;;;;;;;66.43;10.38;;;;;;;0.76;80.69;96896.78;5068229;28;20049;-67
2020/12/19 08:26:41;;;;;;;72.22;9.95;;;;;;;0.77;80.64;96893.06;5068471;28;20054;-69
2020/12/19 08:29:08;;;;;;;73.55;9.82;;;;;;;0.77;80.68;96893.06;5068006;28;20045;-66
2020/12/19 08:31:36;;;;;;;66.32;9.90;;;;;;;0.81;80.66;96887.22;5068359;28;20078;-68
2020/12/19 08:34:04;;;;;;;86.63;10.55;;;;;;;0.84;80.64;96897.47;5067725;28;20543;-68
2020/12/19 08:36:31;;;;;;;90.30;11.38;;;;;;;0.90;80.84;96888.44;5067992;28;20045;-68
2020/12/19 08:39:14;;;;;;;88.68;10.70;;;;;;;0.90;80.75;96897.31;5068274;28;20508;-68
2020/12/19 08:41:40;;;;;;;74.97;10.13;;;;;;;0.88;80.70;96903.94;5068214;28;20048;-68
2020/12/19 08:44:06;;;;;;;80.82;10.65;;;;;;;0.90;80.63;96907.22;5073758;28;20291;-68
2020/12/19 08:46:32;;;;;;;100.20;11.95;;;;;;;0.95;80.57;96909.97;5086471;28;20055;-68
2020/12/19 08:49:02;;;;;;;94.85;11.90;;;;;;;0.98;80.43;96904.13;5088190;28;20048;-68
2020/12/19 08:51:28;;;;;;;77.35;11.18;;;;;;;1.03;80.56;96917.59;5088067;28;20055;-68
2020/12/19 08:54:09;;;;;;;87.70;10.88;;;;;;;1.09;80.57;96905.91;5087790;28;20052;-68
2020/12/19 08:56:36;;;;;;;65.90;9.95;;;;;;;1.09;80.23;96913.13;5087653;28;20044;-68
2020/12/19 08:59:02;;;;;;;86.65;11.30;;;;;;;1.09;79.90;96905.91;5087626;28;20499;-69
2020/12/19 09:01:31;;;;;;;81.65;11.25;;;;;;;1.09;79.78;96905.91;5087042;28;20052;-68
2020/12/19 09:04:08;;;;;;;86.65;12.18;;;;;;;1.16;80.17;96911.13;5087670;28;20056;-68
2020/12/19 09:06:45;;;;;;;86.65;12.65;;;;;;;1.19;80.13;96915.97;5087726;28;20097;-68
2020/12/19 09:09:16;;;;;;;59.28;10.95;;;;;;;1.15;79.73;96915.69;5087366;28;20109;-69
2020/12/19 09:11:42;;;;;;;80.72;11.48;;;;;;;1.19;80.25;96916.78;5087987;28;20052;-68
2020/12/19 09:14:10;;;;;;;86.10;13.20;;;;;;;1.25;80.37;96920.38;5076367;28;20415;-69
2020/12/19 09:16:45;;;;;;;111.93;13.70;;;;;;;1.33;80.19;96921.84;5067042;28;20052;-68
2020/12/19 09:19:13;;;;;;;87.78;13.02;;;;;;;1.38;80.45;96921.91;5066686;28;20105;-68
2020/12/19 09:21:39;;;;;;;81.60;12.05;;;;;;;1.33;80.26;96911.09;5066496;28;20457;-68
2020/12/19 09:24:05;;;;;;;74.88;11.93;;;;;;;1.26;79.49;96906.72;5066489;28;20057;-70
2020/12/19 09:26:31;;;;;;;84.43;13.27;;;;;;;1.25;79.34;96905.13;5066875;28;20048;-69
2020/12/19 09:28:57;;;;;;;73.50;12.00;;;;;;;1.29;79.61;96916.16;5067205;28;20518;-69
2020/12/19 09:31:26;;;;;;;71.43;12.55;;;;;;;1.28;79.36;96914.53;5066134;28;20055;-69
2020/12/19 09:33:52;;;;;;;82.60;12.77;;;;;;;1.29;79.63;96916.94;5067133;28;20515;-69
2020/12/19 09:36:19;;;;;;;67.80;12.50;;;;;;;1.33;79.48;96919.16;5066577;28;20053;-69
2020/12/19 09:38:45;;;;;;;83.03;13.40;;;;;;;1.39;79.12;96912.81;5067454;28;20064;-82
2020/12/19 09:41:11;;;;;;;99.30;14.77;;;;;;;1.37;79.28;96917.63;5070126;28;20050;-81
2020/12/19 09:43:39;;;;;;;87.22;13.00;;;;;;;1.32;79.45;96914.84;5068327;28;20071;-68
2020/12/19 09:46:05;;;;;;;73.68;13.27;;;;;;;1.37;79.63;96922.97;5065989;28;20080;-68
2020/12/19 09:48:31;;;;;;;90.32;13.02;;;;;;;1.36;79.41;96922.19;5066569;28;20127;-68
2020/12/19 09:50:57;;;;;;;76.70;12.65;;;;;;;1.35;79.22;96919.72;5066881;28;20052;-69
2020/12/19 09:53:24;;;;;;;69.72;12.10;;;;;;;1.38;79.23;96914.69;5066352;28;20048;-69
2020/12/19 09:55:50;;;;;;;79.03;13.05;;;;;;;1.41;79.34;96906.16;5066810;28;20053;-69
2020/12/19 09:58:16;;;;;;;82.78;12.60;;;;;;;1.46;79.10;96910.75;5065344;28;20054;-69
2020/12/19 10:00:42;;;;;;;132.52;13.75;;;;;;;1.42;79.10;96909.66;5065589;28;20143;-68
2020/12/19 10:03:08;;;;;;;78.10;11.68;;;;;;;1.44;78.88;96912.88;5065430;28;20052;-69
2020/12/19 10:05:36;;;;;;;76.00;11.70;;;;;;;1.48;78.76;96903.28;5066176;28;20053;-69
2020/12/19 10:08:02;;;;;;;82.00;11.73;;;;;;;1.54;79.07;96903.09;5064190;28;20127;-70
2020/12/19 10:10:29;;;;;;;87.75;12.50;;;;;;;1.52;78.82;96901.75;5065301;28;20574;-69
2020/12/19 10:12:55;;;;;;;89.75;12.30;;;;;;;1.53;78.13;96898.00;5066361;28;20076;-69
2020/12/19 10:15:22;;;;;;;84.68;13.52;;;;;;;1.52;78.18;96896.38;5064819;28;20449;-69
2020/12/19 10:17:48;;;;;;;88.32;13.25;;;;;;;1.54;78.53;96896.94;5065919;28;20056;-70
2020/12/19 10:20:14;;;;;;;92.22;13.55;;;;;;;1.58;78.42;96887.31;5065389;28;20053;-70
2020/12/19 10:22:40;;;;;;;89.82;12.63;;;;;;;1.60;78.53;96887.06;5065865;28;20071;-70
2020/12/19 10:25:06;;;;;;;87.32;12.85;;;;;;;1.58;78.48;96881.97;5065541;28;20423;-71
2020/12/19 10:27:33;;;;;;;123.05;15.18;;;;;;;1.64;78.49;96880.97;5065466;28;20059;-69
2020/12/19 10:29:59;;;;;;;71.85;12.27;;;;;;;1.67;78.49;96891.22;5065919;28;20588;-69
2020/12/19 10:32:25;;;;;;;89.85;12.73;;;;;;;1.70;78.34;96885.34;5065563;28;20055;-69
2020/12/19 10:34:51;;;;;;;89.25;13.30;;;;;;;1.75;78.21;96884.59;5066320;28;20056;-69
2020/12/19 10:37:17;;;;;;;92.88;13.82;;;;;;;1.79;78.31;96883.03;5064898;28;20135;-69
2020/12/19 10:39:44;;;;;;;72.57;13.05;;;;;;;1.83;78.34;96890.34;5066096;28;20048;-70
2020/12/19 10:42:10;;;;;;;85.05;14.95;;;;;;;1.83;78.24;96881.50;5065651;28;20051;-70
2020/12/19 10:44:37;;;;;;;96.82;18.05;;;;;;;1.87;78.20;96885.28;5065909;28;20057;-69
2020/12/19 10:47:03;;;;;;;68.63;12.73;;;;;;;1.93;78.38;96880.78;5065128;28;20045;-70
2020/12/19 10:49:29;;;;;;;92.78;13.43;;;;;;;2.00;77.75;96884.09;5065502;28;20486;-69
2020/12/19 10:51:56;;;;;;;93.15;13.13;;;;;;;2.06;76.75;96893.84;5065369;28;20061;-69
2020/12/19 10:54:22;;;;;;;77.43;12.75;;;;;;;2.06;77.04;96883.91;5064991;28;20127;-70
2020/12/19 10:56:48;;;;;;;95.55;12.48;;;;;;;2.06;77.29;96872.34;5065351;28;20053;-69
2020/12/19 10:59:14;;;;;;;82.10;12.63;;;;;;;2.02;77.36;96882.78;5064703;28;20048;-69
2020/12/19 11:01:41;;;;;;;87.57;12.75;;;;;;;1.99;77.33;96871.75;5065785;28;20052;-69
2020/12/19 11:04:07;;;;;;;90.00;13.93;;;;;;;1.98;77.51;96876.28;5064980;28;20511;-68
2020/12/19 11:06:33;;;;;;;86.95;14.60;;;;;;;2.02;77.50;96876.59;5065095;28;20051;-67
2020/12/19 11:08:59;;;;;;;110.18;14.25;;;;;;;2.03;77.13;96875.53;5064181;28;20113;-68
2020/12/19 11:11:25;;;;;;;88.97;13.00;;;;;;;1.98;77.12;96867.41;5067756;28;20048;-68
2020/12/19 11:13:51;;;;;;;123.57;15.40;;;;;;;1.99;77.15;96872.56;5068857;28;20048;-69
2020/12/19 11:16:21;;;;;;;97.85;13.45;;;;;;;1.98;76.85;96875.47;5068275;28;20600;-69
2020/12/19 11:18:48;;;;;;;79.93;12.50;;;;;;;1.92;76.92;96876.47;5068690;28;20056;-68
2020/12/19 11:21:14;;;;;;;77.53;11.38;;;;;;;1.90;76.98;96870.56;5068762;28;20619;-68
2020/12/19 11:23:40;;;;;;;75.38;11.70;;;;;;;1.85;76.52;96862.44;5069935;28;20443;-69
2020/12/19 11:26:06;;;;;;;89.07;12.45;;;;;;;1.91;76.78;96864.94;5069249;28;20057;-69
2020/12/19 11:28:33;;;;;;;74.82;12.18;;;;;;;1.66;77.00;96861.91;5069299;28;20044;-68